Twentynine Palms (Self) Airport
KNXP : now visible

Airfield :











YOU CAN JOIN US ON...

 
LOGIN :

Register | Disclaimer

   EN    FR    IT 

 









Legend :    VFR   Marginal VFR   IFR   Intensive IFR   Very Intensive IFR
Visi :
Ceiling :
>= 8 km
>= 3000ft
5 to 8 km
1000 to 3000 ft
1500m to 5 km
500 to 1000 ft
800 to 1500m
200 to 500 ft
< 800m
< 200 ft
Symbols :   Thunderstorms  Fog  Heavy snow  Heavy precipitations  Wind > 20 kt






- Airport Elevation : 2051 ft


KNXP - Twentynine Palms (Self)

CURRENT METAR :
  • 222256Z AUTO 23020KT 10SM FEW110 37/03 A2993 RMK AO2 SLP095 T03670028

EXPIRED METARs :
  • 222156Z AUTO 22014G20KT 10SM CLR 38/02 A2994 RMK AO2 SLP096 T03830017
  • 222056Z AUTO 14005KT 10SM CLR 37/00 A2996 RMK AO2 SLP101 T03720000 58007

TAF TAF KNXP
Valid from the 22 at 21:00 until the 23 at 21:00 UTC


2221/2321 22012KT 9999 BKN170 520009 520903 QNH2988INS
TEMPO 2221/2303 24018G28KT
BECMG 2305/2307 29008KT 9999 BKN140 520009 520903 QNH2989INS
FM231330 VRB05KT 9999 BKN140 520009 520903 QNH2991INS
BECMG 2318/2320 12010KT 9999 BKN140 520009 520903 QNH2995INS T38/2223Z T27/2312Z
KZLA FIR / North America



MET'MAP, your aeronautical weather chart ! - Copyright ORBIFLY December 2007 - Disclaimer

ORBIFLY MET'MAP TEAM :

Programming & Development : Alexandra Zaïnal
Concept & original design : Baudouin d'Aumeries
Assistance for programming : Marc-Olivier Méhu
Technical & hardware support : Manuel Goepfert

Contact : metmap@orbifly.com




SOURCES & CREDITS :

   NOAA       Earth
Advisory